Granby, CO (80446)

12:42 PM MDT on August 23, 2014 (GMT -0600)
Granby Ranch | Change Station
CLOSE
Current Station
Personal Weather Station
Location: Granby, CO
Elevation: 8360 ft
Nearby Weather Stations

Elev 8360 ft 40.05 °N, 105.91 °W | Updated 2 minutes ago

Overcast
Overcast
55.2 °F
Feels Like 55.2 °F
N
1.0
Wind Variable Wind from WNW
Gusts 5.0 mph

Today
High -- | Low -- °F
--% Chance of Precip.
Yesterday
High -- | Low -- °F
Precip. -- in
6:22 AM 7:48 PM
Waning Crescent, 3% visible
Pressure 30.16 in
Visibility 10.0 miles
Clouds Scattered Clouds 3300 ft
Scattered Clouds 6000 ft
Overcast 6500 ft
Dew Point 47 °F
Humidity 75%
Rainfall 0.09 in
Snow Depth 0 in , 0 in , 0 in
UV 3 out of 12
Pollen 9.20 out of 12
Air Quality Not available.
Flu Activity Not available.
METAR K20V 231837Z AUTO 28006KT 10SM SCT033 SCT060 OVC065 13/06 A3016 RMK AO2

More Conditions Fewer Conditions

Pressure 30.16 in
Visibility 10.0 miles
Clouds Scattered Clouds 3300 ft
Scattered Clouds 6000 ft
Overcast 6500 ft
Dew Point 47 °F
Humidity 75%
Rainfall 0.09 in
Snow Depth 0 in , 0 in , 0 in
UV 3 out of 12
Pollen 9.20 out of 12
Air Quality Not available.
Flu Activity Not available.
METAR K20V 231837Z AUTO 28006KT 10SM SCT033 SCT060 OVC065 13/06 A3016 RMK AO2

More Conditions Fewer Conditions

Nowcast | as of 12:30 PM MDT on August 23, 2014

Scattered showers and a few thunderstorms will continue move into the northern Colorado mountains from the west through the afternoon. Brief heavy rain and wind gusts to 35 mph are possible with some of the showers.

×

10-Day Weather Forecast

Almanac

Astronomy

Aug. 23, 2014 Rise Set
Actual Time 6:22 AM MDT 7:48 PM MDT
Civil Twilight 5:54 AM MDT 8:17 PM MDT
Nautical Twilight 5:20 AM MDT 8:51 PM MDT
Astronomical Twilight 4:44 AM MDT 9:27 PM MDT
Moon 4:41 AM MDT 6:35 PM MDT
Length of Visible Light 14h 22m
Length of Day
13h 26m
Tomorrow will be 2m 27s shorter.
Waning Crescent, 3% of the Moon is Illuminated
Today
Waning Crescent
Aug 25
New
Sep 2
First Quarter
Sep 8
Full
Sep 15
Last Quarter

Today's Extremes

State Highs State Lows

Community

WunderPhotos

Upload Photos

1,746,558 photos uploaded!

WunderBlogs® & News

By Dr. Jeff Masters
Director of Meteorology, Weather Underground
By Kari Strenfel
Meteorologist, Weather Underground
By Christopher C. Burt
Weather Historian, Weather Underground
August 23, 2014
August 23, 2014
August 23, 2014

Nearby

Snow Depth

Station Depth Elevation
University Camp 0 in 10300 ft
Niwot 0 in 9910 ft
Wild Basin 0 in 9560 ft
Berthoud Summit 0 in 11300 ft
Jones Pass 0 in 10400 ft

Earthquake Activity

City Distance Mag. Time & Date
No recent earthquake activity has been reported nearby.
Minimum magnitude displayed is 2.5.

Coastal Water Temperatures

Place Temperature
No Stations Reporting

Nearby Weather Stations